createdAt,value
2023-02-25T00:01:41.752Z,17.23
2023-02-25T00:04:11.186Z,5.00
2023-02-25T00:06:37.916Z,4.68
2023-02-25T00:09:06.591Z,4.25
2023-02-25T00:11:33.313Z,4.40
2023-02-25T00:14:00.055Z,4.72
2023-02-25T00:16:27.674Z,4.70
2023-02-25T00:18:56.336Z,3.88
2023-02-25T00:21:24.006Z,4.15
2023-02-25T00:23:53.697Z,4.53
2023-02-25T00:26:22.339Z,4.43
2023-02-25T00:28:49.933Z,4.57
2023-02-25T00:31:24.043Z,3.35
2023-02-25T00:33:52.184Z,4.80
2023-02-25T00:36:23.546Z,5.28
2023-02-25T00:38:55.568Z,3.10
2023-02-25T00:41:27.613Z,5.85
2023-02-25T00:44:00.628Z,4.03
2023-02-25T00:46:29.962Z,3.97
2023-02-25T00:48:56.897Z,4.68
2023-02-25T00:51:30.526Z,4.15
2023-02-25T00:53:58.364Z,4.03
2023-02-25T00:56:26.448Z,4.55
2023-02-25T00:58:53.953Z,4.22
2023-02-25T01:01:28.182Z,4.20
2023-02-25T01:03:56.920Z,4.47
2023-02-25T01:06:26.412Z,3.13
2023-02-25T01:08:53.838Z,4.22
2023-02-25T01:11:29.555Z,4.43
2023-02-25T01:13:59.535Z,4.93
2023-02-25T01:16:30.127Z,3.33
2023-02-25T01:19:00.588Z,4.07
2023-02-25T01:21:35.345Z,3.00
2023-02-25T01:24:10.776Z,3.35
2023-02-25T01:26:42.266Z,2.80
2023-02-25T01:29:11.841Z,2.85
2023-02-25T01:31:39.505Z,3.47
2023-02-25T01:34:08.994Z,2.92
2023-02-25T01:36:36.245Z,2.97
2023-02-25T01:39:05.060Z,2.72
2023-02-25T01:41:33.842Z,2.67
2023-02-25T01:44:08.482Z,3.53
2023-02-25T01:46:37.720Z,3.35
2023-02-25T01:49:14.105Z,3.95
2023-02-25T01:51:44.239Z,3.42
2023-02-25T01:54:12.285Z,3.33
2023-02-25T01:56:43.280Z,3.65
2023-02-25T01:59:12.422Z,2.72
2023-02-25T02:01:40.388Z,3.38
2023-02-25T02:04:11.095Z,3.33
2023-02-25T02:06:45.043Z,4.05
2023-02-25T02:09:19.656Z,4.10
2023-02-25T02:11:46.424Z,3.13
2023-02-25T02:14:22.625Z,2.72
2023-02-25T02:17:10.577Z,2.10
2023-02-25T02:19:52.239Z,1.52
2023-02-25T02:22:31.017Z,1.67
2023-02-25T02:25:41.285Z,1.60
2023-02-25T02:28:52.913Z,1.20
2023-02-25T02:32:01.427Z,2.92
2023-02-25T02:34:40.231Z,1.80
2023-02-25T02:37:51.341Z,3.45
2023-02-25T02:40:49.358Z,2.20
2023-02-25T02:43:44.186Z,1.67
2023-02-25T02:46:29.467Z,2.08
2023-02-25T02:49:01.680Z,2.88
2023-02-25T02:51:44.525Z,1.63
2023-02-25T02:54:14.268Z,1.90
2023-02-25T02:56:43.885Z,1.92
2023-02-25T02:59:30.966Z,1.98
2023-02-25T03:02:25.107Z,2.15
2023-02-25T03:04:59.693Z,1.88
2023-02-25T03:07:27.482Z,1.65
2023-02-25T03:09:59.380Z,1.88
2023-02-25T03:12:26.174Z,2.35
2023-02-25T03:14:52.918Z,2.92
2023-02-25T03:17:27.413Z,3.08
2023-02-25T03:20:07.105Z,3.05
2023-02-25T03:22:39.501Z,3.15
2023-02-25T03:25:18.662Z,3.30
2023-02-25T03:27:48.539Z,3.13
2023-02-25T03:30:38.088Z,2.97
2023-02-25T03:33:16.644Z,2.72
2023-02-25T03:35:46.859Z,3.45
2023-02-25T03:38:21.212Z,3.58
2023-02-25T03:40:50.515Z,3.80
2023-02-25T03:43:25.520Z,3.53
2023-02-25T03:45:53.390Z,3.42
2023-02-25T03:48:20.455Z,2.88
2023-02-25T03:50:54.916Z,3.45
2023-02-25T03:53:22.006Z,3.78
2023-02-25T03:55:48.896Z,3.50
2023-02-25T03:58:15.630Z,3.83
2023-02-25T04:00:46.465Z,3.10
2023-02-25T04:03:13.449Z,3.17
2023-02-25T04:05:40.262Z,4.65
2023-02-25T04:08:15.350Z,4.25
2023-02-25T04:10:46.469Z,3.13
2023-02-25T04:13:15.806Z,3.50
2023-02-25T04:15:43.822Z,3.63
2023-02-25T04:18:10.662Z,4.68
2023-02-25T04:20:37.399Z,4.78
2023-02-25T04:23:04.143Z,3.53
2023-02-25T04:25:30.986Z,4.75
2023-02-25T04:27:57.869Z,3.28
2023-02-25T04:30:24.616Z,4.30
2023-02-25T04:32:51.606Z,3.28
2023-02-25T04:35:18.509Z,2.55
2023-02-25T04:37:45.258Z,3.97
2023-02-25T04:40:19.131Z,3.08
2023-02-25T04:42:46.981Z,3.22
2023-02-25T04:45:14.894Z,3.97
2023-02-25T04:47:42.284Z,3.20
2023-02-25T04:50:11.313Z,3.65
2023-02-25T04:52:38.188Z,2.95
2023-02-25T04:55:05.943Z,4.07
2023-02-25T04:57:32.682Z,3.10
2023-02-25T04:59:59.407Z,3.28
2023-02-25T05:02:26.176Z,3.28
2023-02-25T05:04:52.996Z,3.75
2023-02-25T05:07:19.772Z,3.85
2023-02-25T05:09:46.561Z,3.17
2023-02-25T05:12:13.363Z,3.92
2023-02-25T05:14:40.186Z,3.70
2023-02-25T05:17:06.977Z,4.32
2023-02-25T05:19:33.776Z,3.72
2023-02-25T05:22:00.519Z,3.63
2023-02-25T05:24:27.263Z,4.00
2023-02-25T05:26:54.210Z,4.38
2023-02-25T05:29:21.024Z,4.18
2023-02-25T05:31:48.073Z,4.65
2023-02-25T05:34:16.461Z,3.70
2023-02-25T05:36:43.186Z,3.60
2023-02-25T05:39:13.406Z,4.35
2023-02-25T05:41:40.821Z,4.30
2023-02-25T05:44:08.060Z,4.47
2023-02-25T05:46:35.141Z,4.38
2023-02-25T05:49:01.909Z,4.85
2023-02-25T05:51:28.705Z,3.75
2023-02-25T05:53:55.754Z,4.32
2023-02-25T05:56:25.804Z,3.85
2023-02-25T05:58:52.968Z,4.18
2023-02-25T06:01:24.138Z,3.72
2023-02-25T06:03:58.477Z,4.22
2023-02-25T06:06:28.593Z,4.15
2023-02-25T06:08:55.904Z,5.18
2023-02-25T06:11:27.755Z,5.68
2023-02-25T06:13:56.828Z,7.80
2023-02-25T06:16:30.457Z,5.40
2023-02-25T06:18:58.470Z,4.57
2023-02-25T06:21:25.650Z,5.50
2023-02-25T06:23:52.715Z,5.38
2023-02-25T06:26:19.702Z,5.63
2023-02-25T06:28:46.439Z,6.60
2023-02-25T06:31:16.980Z,6.30
2023-02-25T06:33:45.566Z,4.55
2023-02-25T06:36:13.589Z,4.97
2023-02-25T06:38:40.484Z,5.35
2023-02-25T06:41:10.571Z,6.55
2023-02-25T06:43:38.413Z,4.60
2023-02-25T06:46:08.041Z,4.63
2023-02-25T06:48:35.261Z,4.18
2023-02-25T06:51:03.105Z,3.28
2023-02-25T06:53:29.907Z,3.15
2023-02-25T06:55:58.932Z,2.50
2023-02-25T06:58:25.753Z,2.38
2023-02-25T07:00:52.574Z,2.00
2023-02-25T07:03:19.348Z,1.75
2023-02-25T07:05:46.089Z,2.47
2023-02-25T07:08:12.831Z,2.70
2023-02-25T07:10:40.684Z,2.28
2023-02-25T07:13:09.567Z,3.00
2023-02-25T07:15:36.512Z,2.58
2023-02-25T07:18:04.411Z,2.33
2023-02-25T07:20:31.295Z,2.60
2023-02-25T07:22:58.408Z,2.10
2023-02-25T07:25:25.228Z,3.58
2023-02-25T07:27:52.001Z,2.15
2023-02-25T07:30:19.079Z,1.77
2023-02-25T07:32:46.016Z,2.60
2023-02-25T07:35:12.954Z,2.03
2023-02-25T07:37:40.009Z,1.95
2023-02-25T07:40:14.407Z,2.08
2023-02-25T07:42:41.682Z,2.28
2023-02-25T07:45:10.409Z,1.90
2023-02-25T07:47:38.287Z,1.88
2023-02-25T07:50:07.065Z,1.33
2023-02-25T07:52:33.922Z,1.75
2023-02-25T07:55:00.661Z,0.90
2023-02-25T07:57:28.991Z,1.38
2023-02-25T07:59:56.175Z,0.85
2023-02-25T08:02:23.055Z,1.30
2023-02-25T08:04:50.104Z,1.40
2023-02-25T08:07:17.537Z,1.10
2023-02-25T08:09:44.775Z,1.73
2023-02-25T08:12:11.509Z,1.60
2023-02-25T08:14:38.644Z,1.00
2023-02-25T08:17:05.632Z,0.75
2023-02-25T08:19:32.492Z,1.10
2023-02-25T08:22:00.356Z,1.05
2023-02-25T08:24:27.333Z,1.27
2023-02-25T08:26:54.893Z,0.73
2023-02-25T08:29:22.192Z,1.30
2023-02-25T08:31:52.051Z,1.75
2023-02-25T08:34:18.909Z,0.75
2023-02-25T08:36:45.719Z,0.70
2023-02-25T08:39:12.647Z,0.68
2023-02-25T08:41:39.490Z,0.70
2023-02-25T08:44:06.508Z,1.00
2023-02-25T08:46:34.031Z,0.82
2023-02-25T08:49:01.685Z,1.10
2023-02-25T08:51:34.510Z,0.63
2023-02-25T08:54:09.624Z,1.20
2023-02-25T08:56:37.309Z,0.75
2023-02-25T08:59:05.398Z,0.73
2023-02-25T09:01:45.150Z,0.90
2023-02-25T09:04:14.658Z,1.40
2023-02-25T09:06:41.485Z,1.30
2023-02-25T09:09:08.276Z,0.68
2023-02-25T09:11:35.777Z,1.95
2023-02-25T09:14:02.566Z,1.23
2023-02-25T09:16:30.859Z,0.73
2023-02-25T09:18:57.725Z,1.00
2023-02-25T09:21:24.999Z,1.38
2023-02-25T09:23:52.118Z,1.20
2023-02-25T09:26:21.774Z,1.50
2023-02-25T09:28:49.521Z,0.98
2023-02-25T09:31:18.152Z,1.20
2023-02-25T09:33:45.886Z,1.15
2023-02-25T09:36:16.880Z,0.88
2023-02-25T09:38:45.391Z,0.65
2023-02-25T09:41:35.590Z,1.63
2023-02-25T09:44:12.483Z,1.00
2023-02-25T09:46:56.669Z,0.65
2023-02-25T09:49:39.896Z,1.05
2023-02-25T09:52:22.699Z,1.10
2023-02-25T09:55:15.015Z,0.70
2023-02-25T09:57:44.400Z,1.08
2023-02-25T10:00:21.945Z,1.88
2023-02-25T10:03:02.292Z,0.90
2023-02-25T10:05:44.251Z,0.93
2023-02-25T10:08:52.436Z,1.20
2023-02-25T10:11:51.107Z,0.82
2023-02-25T10:14:48.611Z,1.38
2023-02-25T10:17:30.516Z,1.40
2023-02-25T10:20:39.940Z,2.47
2023-02-25T10:23:47.884Z,1.30
2023-02-25T10:26:25.864Z,1.23
2023-02-25T10:29:05.998Z,1.65
2023-02-25T10:31:33.243Z,1.00
2023-02-25T10:34:38.976Z,1.15
2023-02-25T10:37:14.440Z,0.73
2023-02-25T10:39:42.195Z,3.80
2023-02-25T10:42:11.880Z,1.50
2023-02-25T10:44:39.678Z,1.08
2023-02-25T10:47:11.282Z,1.50
2023-02-25T10:49:40.766Z,1.45
2023-02-25T10:52:14.881Z,1.02
2023-02-25T10:54:59.737Z,1.77
2023-02-25T10:57:41.546Z,1.00
2023-02-25T11:00:29.290Z,1.30
2023-02-25T11:02:58.385Z,1.45
2023-02-25T11:05:38.934Z,1.77
2023-02-25T11:08:25.251Z,1.30
2023-02-25T11:11:03.352Z,1.40
2023-02-25T11:13:35.311Z,1.02
2023-02-25T11:16:12.968Z,1.10
2023-02-25T11:18:41.787Z,1.65
2023-02-25T11:21:16.301Z,1.58
2023-02-25T11:23:43.302Z,0.82
2023-02-25T11:26:26.304Z,0.70
2023-02-25T11:28:53.901Z,0.82
2023-02-25T11:31:25.156Z,0.85
2023-02-25T11:33:59.691Z,0.90
2023-02-25T11:36:36.603Z,1.05
2023-02-25T11:39:26.518Z,1.52
2023-02-25T11:42:02.038Z,1.33
2023-02-25T11:44:43.572Z,1.85
2023-02-25T11:47:27.637Z,0.98
2023-02-25T11:50:18.005Z,1.02
2023-02-25T11:52:51.348Z,0.95
2023-02-25T11:55:26.913Z,1.17
2023-02-25T11:58:03.513Z,1.48
2023-02-25T12:01:00.395Z,1.70
2023-02-25T12:04:02.696Z,1.10
2023-02-25T12:07:01.057Z,1.00
2023-02-25T12:09:52.736Z,0.68
2023-02-25T12:13:07.148Z,0.80
2023-02-25T12:16:24.885Z,1.10
2023-02-25T12:19:11.152Z,0.90
2023-02-25T12:22:01.783Z,0.98
2023-02-25T12:25:04.009Z,0.60
2023-02-25T12:27:57.232Z,1.15
2023-02-25T12:30:30.104Z,1.25
2023-02-25T12:35:49.353Z,0.95
2023-02-25T12:39:10.887Z,0.85
2023-02-25T12:41:50.496Z,0.90
2023-02-25T12:45:08.453Z,1.02
2023-02-25T12:47:50.186Z,1.20
2023-02-25T12:50:34.839Z,1.08
2023-02-25T12:53:22.753Z,1.02
2023-02-25T12:56:11.142Z,0.95
2023-02-25T12:58:47.401Z,0.93
2023-02-25T13:01:44.909Z,0.80
2023-02-25T13:04:35.793Z,0.77
2023-02-25T13:07:10.176Z,1.10
2023-02-25T13:10:18.729Z,0.98
2023-02-25T13:13:33.735Z,1.52
2023-02-25T13:16:12.458Z,1.33
2023-02-25T13:19:33.524Z,1.23
2023-02-25T13:22:53.499Z,1.17
2023-02-25T13:25:41.423Z,0.82
2023-02-25T13:29:00.468Z,0.80
2023-02-25T13:32:10.709Z,0.70
2023-02-25T13:35:10.674Z,1.92
2023-02-25T13:38:11.964Z,0.93
2023-02-25T13:41:00.513Z,0.57
2023-02-25T13:43:53.857Z,1.23
2023-02-25T13:49:25.197Z,0.40
2023-02-25T13:52:01.741Z,0.68
2023-02-25T13:54:46.590Z,0.70
2023-02-25T13:57:47.452Z,1.48
2023-02-25T14:00:37.556Z,1.00
2023-02-25T14:03:19.062Z,0.60
2023-02-25T14:06:28.807Z,0.40
2023-02-25T14:09:07.639Z,0.50
2023-02-25T14:12:13.081Z,0.90
2023-02-25T14:15:23.719Z,0.73
2023-02-25T14:18:10.899Z,0.50
2023-02-25T14:21:08.312Z,0.40
2023-02-25T14:24:00.398Z,0.57
2023-02-25T14:26:41.301Z,0.30
2023-02-25T14:29:48.408Z,0.68
2023-02-25T14:32:29.950Z,0.43
2023-02-25T14:35:46.723Z,0.98
2023-02-25T14:38:21.661Z,0.93
2023-02-25T14:41:17.249Z,0.95
2023-02-25T14:43:49.299Z,0.60
2023-02-25T14:46:35.722Z,1.23
2023-02-25T14:49:29.119Z,0.70
2023-02-25T14:55:20.969Z,0.38
2023-02-25T14:58:21.484Z,0.30
2023-02-25T15:01:06.319Z,0.50
2023-02-25T15:04:00.517Z,0.93
2023-02-25T15:06:58.231Z,0.60
2023-02-25T15:10:12.491Z,0.50
2023-02-25T15:12:59.793Z,0.70
2023-02-25T15:15:38.739Z,0.82
2023-02-25T15:19:00.743Z,0.65
2023-02-25T15:21:49.057Z,0.75
2023-02-25T15:24:27.798Z,0.32
2023-02-25T15:26:56.813Z,0.73
2023-02-25T15:29:29.681Z,0.88
2023-02-25T15:35:03.400Z,0.75
2023-02-25T15:37:37.780Z,0.50
2023-02-25T15:40:33.888Z,0.80
2023-02-25T15:43:31.199Z,1.08
2023-02-25T15:46:07.064Z,0.98
2023-02-25T15:48:38.121Z,0.77
2023-02-25T15:51:11.693Z,0.95
2023-02-25T15:53:44.923Z,0.80
2023-02-25T15:56:11.552Z,0.77
2023-02-25T15:58:50.773Z,1.52
2023-02-25T16:01:29.296Z,0.80
2023-02-25T16:03:56.183Z,1.10
2023-02-25T16:06:24.688Z,0.77
2023-02-25T16:09:05.426Z,0.85
2023-02-25T16:11:49.436Z,1.13
2023-02-25T16:14:31.201Z,1.35
2023-02-25T16:17:01.257Z,0.60
2023-02-25T16:19:33.527Z,0.90
2023-02-25T16:22:09.352Z,0.95
2023-02-25T16:24:37.288Z,0.90
2023-02-25T16:27:07.320Z,0.88
2023-02-25T16:29:43.265Z,1.58
2023-02-25T16:32:33.113Z,1.75
2023-02-25T16:35:25.231Z,1.33
2023-02-25T16:38:04.934Z,1.02
2023-02-25T16:40:38.916Z,0.75
2023-02-25T16:43:10.221Z,1.20
2023-02-25T16:45:45.879Z,1.15
2023-02-25T16:48:19.176Z,0.55
2023-02-25T16:50:48.372Z,0.90
2023-02-25T16:53:25.711Z,1.63
2023-02-25T16:55:59.810Z,0.75
2023-02-25T16:58:29.300Z,1.42
2023-02-25T17:01:03.933Z,1.20
2023-02-25T17:03:42.999Z,1.60
2023-02-25T17:06:20.423Z,0.80
2023-02-25T17:08:50.344Z,0.95
2023-02-25T17:11:23.694Z,0.60
2023-02-25T17:13:55.479Z,0.77
2023-02-25T17:16:29.448Z,1.13
2023-02-25T17:19:01.229Z,2.00
2023-02-25T17:21:38.561Z,0.95
2023-02-25T17:24:18.203Z,1.42
2023-02-25T17:26:48.959Z,1.55
2023-02-25T17:29:18.294Z,1.98
2023-02-25T17:31:49.100Z,0.73
2023-02-25T17:34:30.202Z,0.93
2023-02-25T17:37:02.688Z,0.80
2023-02-25T17:39:30.217Z,1.52
2023-02-25T17:41:57.312Z,1.33
2023-02-25T17:44:39.222Z,1.05
2023-02-25T17:47:09.325Z,1.05
2023-02-25T17:49:37.771Z,1.15
2023-02-25T17:52:08.534Z,1.27
2023-02-25T17:54:37.937Z,0.98
2023-02-25T17:57:18.864Z,0.77
2023-02-25T17:59:53.141Z,1.50
2023-02-25T18:02:22.599Z,1.00
2023-02-25T18:04:53.616Z,1.67
2023-02-25T18:07:29.593Z,1.58
2023-02-25T18:09:57.229Z,2.45
2023-02-25T18:12:31.016Z,0.93
2023-02-25T18:15:05.471Z,1.40
2023-02-25T18:17:36.973Z,2.35
2023-02-25T18:20:15.407Z,1.40
2023-02-25T18:22:48.024Z,1.63
2023-02-25T18:25:57.219Z,1.25
2023-02-25T18:28:24.168Z,1.20
2023-02-25T18:30:51.084Z,1.17
2023-02-25T18:33:18.726Z,1.95
2023-02-25T18:35:47.560Z,1.10
2023-02-25T18:38:21.146Z,1.95
2023-02-25T18:40:49.296Z,1.23
2023-02-25T18:43:30.744Z,0.80
2023-02-25T18:45:57.920Z,2.03
2023-02-25T18:48:24.957Z,1.83
2023-02-25T18:50:51.853Z,1.00
2023-02-25T18:53:23.512Z,0.80
2023-02-25T18:55:52.058Z,0.80
2023-02-25T18:58:21.848Z,1.13
2023-02-25T19:00:56.972Z,1.05
2023-02-25T19:03:35.152Z,1.30
2023-02-25T19:06:02.360Z,1.33
2023-02-25T19:08:29.153Z,2.92
2023-02-25T19:10:56.448Z,1.33
2023-02-25T19:13:37.531Z,1.60
2023-02-25T19:16:05.332Z,1.58
2023-02-25T19:18:32.311Z,2.60
2023-02-25T19:20:59.068Z,4.43
2023-02-25T19:23:25.875Z,3.38
2023-02-25T19:25:58.997Z,3.88
2023-02-25T19:28:26.787Z,1.83
2023-02-25T19:30:53.631Z,2.03
2023-02-25T19:33:20.470Z,1.20
2023-02-25T19:35:47.300Z,1.55
2023-02-25T19:38:18.039Z,1.80
2023-02-25T19:40:47.692Z,1.50
2023-02-25T19:43:18.484Z,1.23
2023-02-25T19:45:45.367Z,1.30
2023-02-25T19:48:12.258Z,0.88
2023-02-25T19:50:41.218Z,0.80
2023-02-25T19:53:08.668Z,1.05
2023-02-25T19:55:35.540Z,0.52
2023-02-25T19:58:02.369Z,0.77
2023-02-25T20:00:29.133Z,0.60
2023-02-25T20:02:56.386Z,0.63
2023-02-25T20:05:24.109Z,1.08
2023-02-25T20:07:51.422Z,0.65
2023-02-25T20:10:18.964Z,0.73
2023-02-25T20:12:47.430Z,0.65
2023-02-25T20:15:16.448Z,1.10
2023-02-25T20:17:45.471Z,1.75
2023-02-25T20:20:14.739Z,1.45
2023-02-25T20:22:41.758Z,1.88
2023-02-25T20:25:10.156Z,1.10
2023-02-25T20:27:39.753Z,0.95
2023-02-25T20:30:08.336Z,1.33
2023-02-25T20:32:35.227Z,2.15
2023-02-25T20:35:03.083Z,0.90
2023-02-25T20:37:34.888Z,0.80
2023-02-25T20:40:01.801Z,0.95
2023-02-25T20:42:30.991Z,1.52
2023-02-25T20:44:59.460Z,0.80
2023-02-25T20:47:35.162Z,1.08
2023-02-25T20:50:04.184Z,1.42
2023-02-25T20:52:31.135Z,1.13
2023-02-25T20:54:58.404Z,1.50
2023-02-25T20:57:26.948Z,1.55
2023-02-25T20:59:54.391Z,1.13
2023-02-25T21:02:22.656Z,2.33
2023-02-25T21:04:50.510Z,1.65
2023-02-25T21:07:17.339Z,0.98
2023-02-25T21:09:44.104Z,1.27
2023-02-25T21:12:10.860Z,1.55
2023-02-25T21:14:37.581Z,1.67
2023-02-25T21:17:09.556Z,1.98
2023-02-25T21:19:38.909Z,1.13
2023-02-25T21:22:07.119Z,1.73
2023-02-25T21:24:34.697Z,1.90
2023-02-25T21:27:02.181Z,1.38
2023-02-25T21:29:29.424Z,1.70
2023-02-25T21:31:56.783Z,1.40
2023-02-25T21:34:23.611Z,1.15
2023-02-25T21:36:50.382Z,1.83
2023-02-25T21:39:17.215Z,0.93
2023-02-25T21:41:44.942Z,1.40
2023-02-25T21:44:12.695Z,1.30
2023-02-25T21:46:40.474Z,1.13
2023-02-25T21:49:07.328Z,1.88
2023-02-25T21:51:34.127Z,1.35
2023-02-25T21:54:02.152Z,1.50
2023-02-25T21:56:30.846Z,1.58
2023-02-25T21:59:01.429Z,2.03
2023-02-25T22:01:35.754Z,2.05
2023-02-25T22:04:03.838Z,2.17
2023-02-25T22:06:30.934Z,2.20
2023-02-25T22:08:58.401Z,1.85
2023-02-25T22:11:32.124Z,1.90
2023-02-25T22:14:01.719Z,2.13
2023-02-25T22:16:29.366Z,2.17
2023-02-25T22:18:56.688Z,1.58
2023-02-25T22:21:30.161Z,2.10
2023-02-25T22:24:00.250Z,2.65
2023-02-25T22:26:30.734Z,1.80
2023-02-25T22:29:04.398Z,2.13
2023-02-25T22:31:32.727Z,1.40
2023-02-25T22:34:00.741Z,1.30
2023-02-25T22:36:28.162Z,2.65
2023-02-25T22:38:56.574Z,2.60
2023-02-25T22:41:28.881Z,1.48
2023-02-25T22:43:58.002Z,1.83
2023-02-25T22:46:27.603Z,2.60
2023-02-25T22:48:55.291Z,1.88
2023-02-25T22:51:24.907Z,1.50
2023-02-25T22:53:52.160Z,3.58
2023-02-25T22:56:19.326Z,1.98
2023-02-25T22:58:46.197Z,2.15
2023-02-25T23:01:17.281Z,1.67
2023-02-25T23:03:44.114Z,1.88
2023-02-25T23:06:16.973Z,1.75
2023-02-25T23:08:44.650Z,1.90
2023-02-25T23:11:21.754Z,2.13
2023-02-25T23:13:52.625Z,2.35
2023-02-25T23:16:42.424Z,2.30
2023-02-25T23:19:16.946Z,2.67
2023-02-25T23:21:44.359Z,2.53
2023-02-25T23:24:18.544Z,2.28
2023-02-25T23:26:50.349Z,1.98
2023-02-25T23:29:17.320Z,2.20
2023-02-25T23:31:47.242Z,1.98
2023-02-25T23:34:20.693Z,1.30
2023-02-25T23:36:47.586Z,1.90
2023-02-25T23:39:16.029Z,1.83
2023-02-25T23:41:43.215Z,1.88
2023-02-25T23:44:12.104Z,1.60
2023-02-25T23:46:39.632Z,1.73
2023-02-25T23:49:07.563Z,1.23
2023-02-25T23:51:35.583Z,2.00
2023-02-25T23:54:05.790Z,1.08
2023-02-25T23:56:34.314Z,1.42
2023-02-25T23:59:01.506Z,2.35
